Für Piloten

Informationen für Piloten zum Flugplatz Borken-Hoxfeld
Hier findest Du alle relevanten Informationen, die Du als Pilot benötigst, um Borken-Hoxfeld anzufliegen.

Flugplatz: Borken-Hoxfeld ICAO-Code: EDLY
Borken-Hoxfeld Info: 122,925 Mhz
GAFOR Gebiet: 32
Platzrunde: Motorflug; -> Südplatzrunde; Segelflug; -> Nordplatzrunde;
Landegebühr: z.Zt. 5,00 Euro
Platzhöhe: 48m üMSL
Pisten: 12/30 – 740 m x 30 m, GRAS
Betriebszeiten: PPR (in den Sommermonaten Mittagspause beachten)

 

Wetterforecast:

Available data for EDDL from the past 2 hours
DUESSELDORF
Metar
EDDL 230050Z 14012KT 7000 FEW010 OVC018 M02/M04 Q0999 R05L/290195 R05R/290195 NOSIG

00:50 UTC

Wind: 140° 12kt

Visibility: 7000 m

Sky: FEW 1000 ft

Temp: -2 deg C / 28.4 deg F

Dewpoint: -4 deg C / 24.8 deg F

Pressure: 999 hPa

TAF
TAF EDDL 222300Z 2300/2406 15012KT 7000 OVC020 TEMPO 2300/2307 4000 BR BKN012 PROB30 TEMPO 2300/2306 BKN009 BECMG 2304/2307 12006KT BECMG 2311/2314 06005KT BECMG 2316/2319 36004KT

Alle obigen Informationen ersetzen nicht die vorgeschriebene, persönliche Flugvorbereitung.